sensor_id;sensor_type;location;lat;lon;timestamp;pressure;altitude;pressure_sealevel;temperature;humidity
6216;BME280;3141;49.234;9.326;2023-05-01T00:00:22;99662.06;;;12.96;75.70
6216;BME280;3141;49.234;9.326;2023-05-01T00:01:04;99657.88;;;13.01;75.62
6216;BME280;3141;49.234;9.326;2023-05-01T00:01:47;99660.53;;;13.09;75.15
6216;BME280;3141;49.234;9.326;2023-05-01T00:02:29;99653.22;;;13.11;75.20
6216;BME280;3141;49.234;9.326;2023-05-01T00:03:12;99654.53;;;13.15;74.91
6216;BME280;3141;49.234;9.326;2023-05-01T00:03:55;99652.88;;;13.14;74.89
6216;BME280;3141;49.234;9.326;2023-05-01T00:04:37;99656.03;;;13.18;74.50
6216;BME280;3141;49.234;9.326;2023-05-01T00:05:19;99649.22;;;13.15;74.66
6216;BME280;3141;49.234;9.326;2023-05-01T00:06:03;99655.88;;;13.11;74.66
6216;BME280;3141;49.234;9.326;2023-05-01T00:06:46;99655.88;;;13.11;74.47
6216;BME280;3141;49.234;9.326;2023-05-01T00:07:29;99651.56;;;13.10;74.36
6216;BME280;3141;49.234;9.326;2023-05-01T00:08:12;99648.72;;;13.12;74.31
6216;BME280;3141;49.234;9.326;2023-05-01T00:08:54;99649.91;;;13.09;74.61
6216;BME280;3141;49.234;9.326;2023-05-01T00:09:37;99654.56;;;13.07;74.55
6216;BME280;3141;49.234;9.326;2023-05-01T00:10:19;99653.06;;;13.05;74.58
6216;BME280;3141;49.234;9.326;2023-05-01T00:11:02;99648.94;;;13.02;74.44
6216;BME280;3141;49.234;9.326;2023-05-01T00:11:45;99652.56;;;13.01;74.45
6216;BME280;3141;49.234;9.326;2023-05-01T00:12:28;99644.31;;;13.04;74.64
6216;BME280;3141;49.234;9.326;2023-05-01T00:13:10;99652.44;;;13.03;74.21
6216;BME280;3141;49.234;9.326;2023-05-01T00:13:52;99649.63;;;13.04;74.14
6216;BME280;3141;49.234;9.326;2023-05-01T00:14:35;99649.91;;;13.09;74.20
6216;BME280;3141;49.234;9.326;2023-05-01T00:15:17;99646.59;;;13.07;73.91
6216;BME280;3141;49.234;9.326;2023-05-01T00:16:00;99656.69;;;13.12;73.57
6216;BME280;3141;49.234;9.326;2023-05-01T00:16:42;99647.63;;;13.06;73.99
6216;BME280;3141;49.234;9.326;2023-05-01T00:17:24;99652.56;;;13.01;74.62
6216;BME280;3141;49.234;9.326;2023-05-01T00:18:07;99652.91;;;12.98;74.47
6216;BME280;3141;49.234;9.326;2023-05-01T00:18:49;99644.63;;;12.93;74.59
6216;BME280;3141;49.234;9.326;2023-05-01T00:19:32;99649.59;;;12.96;74.84
6216;BME280;3141;49.234;9.326;2023-05-01T00:20:14;99646.44;;;12.93;75.16
6216;BME280;3141;49.234;9.326;2023-05-01T00:20:57;99641.31;;;12.91;75.62
6216;BME280;3141;49.234;9.326;2023-05-01T00:21:39;99643.78;;;12.93;75.01
6216;BME280;3141;49.234;9.326;2023-05-01T00:22:23;99641.81;;;12.95;74.93
6216;BME280;3141;49.234;9.326;2023-05-01T00:23:05;99646.13;;;12.96;75.12
6216;BME280;3141;49.234;9.326;2023-05-01T00:23:48;99644.28;;;12.96;75.05
6216;BME280;3141;49.234;9.326;2023-05-01T00:24:30;99640.00;;;12.95;75.72
6216;BME280;3141;49.234;9.326;2023-05-01T00:25:13;99646.78;;;12.98;75.38
6216;BME280;3141;49.234;9.326;2023-05-01T00:25:55;99641.63;;;12.96;75.15
6216;BME280;3141;49.234;9.326;2023-05-01T00:26:38;99637.88;;;12.82;75.43
6216;BME280;3141;49.234;9.326;2023-05-01T00:27:20;99640.84;;;12.88;75.64
6216;BME280;3141;49.234;9.326;2023-05-01T00:28:03;99633.88;;;12.87;75.25
6216;BME280;3141;49.234;9.326;2023-05-01T00:28:46;99635.22;;;12.91;75.37
6216;BME280;3141;49.234;9.326;2023-05-01T00:29:28;99636.00;;;12.91;75.40
6216;BME280;3141;49.234;9.326;2023-05-01T00:30:11;99632.69;;;12.89;75.34
6216;BME280;3141;49.234;9.326;2023-05-01T00:30:53;99631.53;;;12.92;75.54
6216;BME280;3141;49.234;9.326;2023-05-01T00:31:36;99636.69;;;12.93;75.39
6216;BME280;3141;49.234;9.326;2023-05-01T00:32:18;99634.91;;;12.86;75.63
6216;BME280;3141;49.234;9.326;2023-05-01T00:33:00;99626.25;;;12.92;75.45
6216;BME280;3141;49.234;9.326;2023-05-01T00:33:43;99632.03;;;12.95;75.43
6216;BME280;3141;49.234;9.326;2023-05-01T00:34:25;99632.50;;;12.99;75.52
6216;BME280;3141;49.234;9.326;2023-05-01T00:35:08;99626.38;;;12.98;75.20
6216;BME280;3141;49.234;9.326;2023-05-01T00:35:50;99628.03;;;12.99;75.28
6216;BME280;3141;49.234;9.326;2023-05-01T00:36:33;99626.88;;;13.02;74.96
6216;BME280;3141;49.234;9.326;2023-05-01T00:37:16;99626.88;;;13.02;74.97
6216;BME280;3141;49.234;9.326;2023-05-01T00:37:58;99620.72;;;13.01;75.01
6216;BME280;3141;49.234;9.326;2023-05-01T00:38:40;99626.53;;;13.05;74.52
6216;BME280;3141;49.234;9.326;2023-05-01T00:39:23;99624.91;;;13.04;74.50
6216;BME280;3141;49.234;9.326;2023-05-01T00:40:06;99622.25;;;13.04;74.49
6216;BME280;3141;49.234;9.326;2023-05-01T00:40:49;99631.22;;;13.03;74.35
6216;BME280;3141;49.234;9.326;2023-05-01T00:41:32;99624.91;;;12.96;74.58
6216;BME280;3141;49.234;9.326;2023-05-01T00:42:14;99618.22;;;13.00;74.28
6216;BME280;3141;49.234;9.326;2023-05-01T00:42:57;99624.38;;;13.00;74.49
6216;BME280;3141;49.234;9.326;2023-05-01T00:43:40;99623.72;;;12.98;74.54
6216;BME280;3141;49.234;9.326;2023-05-01T00:44:22;99620.41;;;12.96;74.43
6216;BME280;3141;49.234;9.326;2023-05-01T00:45:05;99618.59;;;12.97;74.37
6216;BME280;3141;49.234;9.326;2023-05-01T00:45:48;99623.09;;;12.88;74.59
6216;BME280;3141;49.234;9.326;2023-05-01T00:46:30;99620.13;;;12.83;74.70
6216;BME280;3141;49.234;9.326;2023-05-01T00:47:15;99622.44;;;12.86;74.62
6216;BME280;3141;49.234;9.326;2023-05-01T00:47:57;99621.63;;;12.86;74.60
6216;BME280;3141;49.234;9.326;2023-05-01T00:48:40;99620.50;;;12.80;75.08
6216;BME280;3141;49.234;9.326;2023-05-01T00:49:22;99622.44;;;12.86;74.67
6216;BME280;3141;49.234;9.326;2023-05-01T00:50:05;99613.69;;;12.86;74.90
6216;BME280;3141;49.234;9.326;2023-05-01T00:50:48;99615.13;;;12.88;74.47
6216;BME280;3141;49.234;9.326;2023-05-01T00:51:32;99609.16;;;12.94;74.40
6216;BME280;3141;49.234;9.326;2023-05-01T00:52:15;99615.94;;;12.97;74.08
6216;BME280;3141;49.234;9.326;2023-05-01T00:52:57;99612.44;;;12.96;74.03
6216;BME280;3141;49.234;9.326;2023-05-01T00:53:40;99616.28;;;12.94;74.27
6216;BME280;3141;49.234;9.326;2023-05-01T00:54:23;99610.81;;;12.95;74.41
6216;BME280;3141;49.234;9.326;2023-05-01T00:55:07;99611.97;;;12.93;74.16
6216;BME280;3141;49.234;9.326;2023-05-01T00:55:49;99609.97;;;12.95;74.06
6216;BME280;3141;49.234;9.326;2023-05-01T00:56:32;99605.50;;;12.95;73.80
6216;BME280;3141;49.234;9.326;2023-05-01T00:57:15;99605.50;;;12.95;73.92
6216;BME280;3141;49.234;9.326;2023-05-01T00:57:59;99605.84;;;12.92;73.89
6216;BME280;3141;49.234;9.326;2023-05-01T00:58:41;99601.84;;;12.96;73.40
6216;BME280;3141;49.234;9.326;2023-05-01T00:59:25;99603.50;;;12.97;73.26
6216;BME280;3141;49.234;9.326;2023-05-01T01:00:07;99608.31;;;13.02;73.32
6216;BME280;3141;49.234;9.326;2023-05-01T01:00:52;99607.31;;;12.95;73.65
6216;BME280;3141;49.234;9.326;2023-05-01T01:01:34;99605.00;;;12.92;73.24
6216;BME280;3141;49.234;9.326;2023-05-01T01:02:17;99593.59;;;12.83;73.96
6216;BME280;3141;49.234;9.326;2023-05-01T01:03:00;99603.22;;;12.84;73.71
6216;BME280;3141;49.234;9.326;2023-05-01T01:03:42;99604.75;;;12.78;73.73
6216;BME280;3141;49.234;9.326;2023-05-01T01:04:24;99595.91;;;12.86;73.67
6216;BME280;3141;49.234;9.326;2023-05-01T01:05:09;99594.75;;;12.89;73.30
6216;BME280;3141;49.234;9.326;2023-05-01T01:05:57;99598.88;;;12.91;73.81
6216;BME280;3141;49.234;9.326;2023-05-01T01:06:55;99596.88;;;12.93;73.32
6216;BME280;3141;49.234;9.326;2023-05-01T01:08:06;99594.41;;;12.92;73.67
6216;BME280;3141;49.234;9.326;2023-05-01T01:10:51;99593.88;;;12.96;73.36
6216;BME280;3141;49.234;9.326;2023-05-01T01:13:31;99592.22;;;12.95;73.38
6216;BME280;3141;49.234;9.326;2023-05-01T01:14:24;99589.94;;;12.92;73.53
6216;BME280;3141;49.234;9.326;2023-05-01T01:15:19;99589.09;;;12.92;73.33
6216;BME280;3141;49.234;9.326;2023-05-01T01:16:10;99589.41;;;12.97;73.04
6216;BME280;3141;49.234;9.326;2023-05-01T01:17:12;99586.75;;;12.97;73.01
6216;BME280;3141;49.234;9.326;2023-05-01T01:18:05;99586.56;;;12.98;72.95
6216;BME280;3141;49.234;9.326;2023-05-01T01:18:55;99587.41;;;12.99;73.12
6216;BME280;3141;49.234;9.326;2023-05-01T01:20:54;99587.94;;;12.94;73.23
6216;BME280;3141;49.234;9.326;2023-05-01T01:21:42;99586.63;;;12.90;73.21
6216;BME280;3141;49.234;9.326;2023-05-01T01:22:26;99588.25;;;12.91;73.06
6216;BME280;3141;49.234;9.326;2023-05-01T01:24:29;99587.28;;;12.84;73.34
6216;BME280;3141;49.234;9.326;2023-05-01T01:25:32;99589.63;;;12.87;72.82
6216;BME280;3141;49.234;9.326;2023-05-01T01:26:38;99588.78;;;12.87;73.10
6216;BME280;3141;49.234;9.326;2023-05-01T01:28:39;99581.00;;;12.85;73.28
6216;BME280;3141;49.234;9.326;2023-05-01T01:29:39;99589.28;;;12.90;73.12
6216;BME280;3141;49.234;9.326;2023-05-01T01:30:34;99594.56;;;12.90;73.49
6216;BME280;3141;49.234;9.326;2023-05-01T01:33:24;99588.97;;;12.77;
6216;BME280;3141;49.234;9.326;2023-05-01T01:34:12;99581.00;;;12.77;73.79
6216;BME280;3141;49.234;9.326;2023-05-01T01:35:17;99581.84;;;12.77;74.06
6216;BME280;3141;49.234;9.326;2023-05-01T01:36:07;99586.19;;;12.78;73.50
6216;BME280;3141;49.234;9.326;2023-05-01T01:37:01;99587.47;;;12.82;73.17
6216;BME280;3141;49.234;9.326;2023-05-01T01:37:50;99583.66;;;12.85;73.12
6216;BME280;3141;49.234;9.326;2023-05-01T01:38:41;99586.66;;;12.82;73.59
6216;BME280;3141;49.234;9.326;2023-05-01T01:39:37;99582.34;;;12.81;73.39
6216;BME280;3141;49.234;9.326;2023-05-01T01:40:30;99580.03;;;12.78;73.63
6216;BME280;3141;49.234;9.326;2023-05-01T01:41:21;99582.03;;;12.76;73.88
6216;BME280;3141;49.234;9.326;2023-05-01T01:42:08;99587.50;;;12.74;73.57
6216;BME280;3141;49.234;9.326;2023-05-01T01:42:55;99582.38;;;12.65;74.41
6216;BME280;3141;49.234;9.326;2023-05-01T01:43:44;99580.88;;;12.70;74.32
6216;BME280;3141;49.234;9.326;2023-05-01T01:44:40;99579.06;;;12.71;74.30
6216;BME280;3141;49.234;9.326;2023-05-01T01:45:36;99577.25;;;12.71;74.37
6216;BME280;3141;49.234;9.326;2023-05-01T01:46:20;99575.72;;;12.77;74.47
6216;BME280;3141;49.234;9.326;2023-05-01T01:47:07;99583.03;;;12.75;74.72
6216;BME280;3141;49.234;9.326;2023-05-01T01:47:51;99579.38;;;12.76;74.72
6216;BME280;3141;49.234;9.326;2023-05-01T01:48:38;99583.66;;;12.77;74.24
6216;BME280;3141;49.234;9.326;2023-05-01T01:49:25;99579.56;;;12.74;74.09
6216;BME280;3141;49.234;9.326;2023-05-01T01:50:09;99579.06;;;12.71;74.35
6216;BME280;3141;49.234;9.326;2023-05-01T01:50:57;99577.72;;;12.75;73.74
6216;BME280;3141;49.234;9.326;2023-05-01T01:51:40;99585.03;;;12.73;74.19
6216;BME280;3141;49.234;9.326;2023-05-01T01:52:24;99580.53;;;12.73;74.30
6216;BME280;3141;49.234;9.326;2023-05-01T01:53:08;99578.75;;;12.66;74.83
6216;BME280;3141;49.234;9.326;2023-05-01T01:53:55;99575.44;;;12.64;74.85
6216;BME280;3141;49.234;9.326;2023-05-01T01:54:47;99577.44;;;12.62;74.87
6216;BME280;3141;49.234;9.326;2023-05-01T01:55:32;99577.09;;;12.65;74.74
6216;BME280;3141;49.234;9.326;2023-05-01T01:56:17;99578.44;;;12.61;74.60
6216;BME280;3141;49.234;9.326;2023-05-01T01:57:02;99579.09;;;12.63;74.85
6216;BME280;3141;49.234;9.326;2023-05-01T01:57:45;99579.44;;;12.60;74.98
6216;BME280;3141;49.234;9.326;2023-05-01T01:58:30;99577.59;;;12.60;75.14
6216;BME280;3141;49.234;9.326;2023-05-01T01:59:14;99580.09;;;12.62;75.25
6216;BME280;3141;49.234;9.326;2023-05-01T01:59:57;99577.44;;;12.62;75.01
6216;BME280;3141;49.234;9.326;2023-05-01T02:00:41;99573.81;;;12.63;74.45
6216;BME280;3141;49.234;9.326;2023-05-01T02:01:26;99579.75;;;12.65;74.79
6216;BME280;3141;49.234;9.326;2023-05-01T02:02:11;99575.09;;;12.67;74.82
6216;BME280;3141;49.234;9.326;2023-05-01T02:02:57;99574.59;;;12.63;75.03
6216;BME280;3141;49.234;9.326;2023-05-01T02:03:42;99572.78;;;12.64;75.00
6216;BME280;3141;49.234;9.326;2023-05-01T02:04:26;99569.16;;;12.57;74.63
6216;BME280;3141;49.234;9.326;2023-05-01T02:05:13;99575.13;;;12.59;74.83
6216;BME280;3141;49.234;9.326;2023-05-01T02:05:57;99572.00;;;12.55;75.01
6216;BME280;3141;49.234;9.326;2023-05-01T02:06:41;99578.75;;;12.66;74.64
6216;BME280;3141;49.234;9.326;2023-05-01T02:07:27;99574.59;;;12.63;74.60
6216;BME280;3141;49.234;9.326;2023-05-01T02:08:10;99568.81;;;12.60;74.92
6216;BME280;3141;49.234;9.326;2023-05-01T02:08:55;99578.31;;;12.54;74.93
6216;BME280;3141;49.234;9.326;2023-05-01T02:09:40;99573.50;;;12.58;74.74
6216;BME280;3141;49.234;9.326;2023-05-01T02:10:23;99565.06;;;12.46;75.17
6216;BME280;3141;49.234;9.326;2023-05-01T02:11:09;99578.13;;;12.48;75.10
6216;BME280;3141;49.234;9.326;2023-05-01T02:11:53;99571.34;;;12.53;74.77
6216;BME280;3141;49.234;9.326;2023-05-01T02:12:39;99574.38;;;12.42;75.35
6216;BME280;3141;49.234;9.326;2023-05-01T02:13:23;99570.03;;;12.41;75.00
6216;BME280;3141;49.234;9.326;2023-05-01T02:14:06;99566.88;;;12.46;75.24
6216;BME280;3141;49.234;9.326;2023-05-01T02:14:50;99569.19;;;12.49;75.17
6216;BME280;3141;49.234;9.326;2023-05-01T02:15:34;99569.06;;;12.42;75.29
6216;BME280;3141;49.234;9.326;2023-05-01T02:16:18;99568.19;;;12.50;74.65
6216;BME280;3141;49.234;9.326;2023-05-01T02:17:01;99574.34;;;12.50;74.79
6216;BME280;3141;49.234;9.326;2023-05-01T02:17:44;99567.53;;;12.48;75.08
6216;BME280;3141;49.234;9.326;2023-05-01T02:18:27;99564.88;;;12.48;74.77
6216;BME280;3141;49.234;9.326;2023-05-01T02:19:12;99563.72;;;12.50;74.67
6216;BME280;3141;49.234;9.326;2023-05-01T02:19:56;99563.72;;;12.50;74.61
6216;BME280;3141;49.234;9.326;2023-05-01T02:20:40;99562.59;;;12.45;74.98
6216;BME280;3141;49.234;9.326;2023-05-01T02:21:24;99562.75;;;12.43;74.82
6216;BME280;3141;49.234;9.326;2023-05-01T02:22:10;99565.41;;;12.43;74.84
6216;BME280;3141;49.234;9.326;2023-05-01T02:22:53;99570.19;;;12.48;74.72
6216;BME280;3141;49.234;9.326;2023-05-01T02:23:37;99564.75;;;12.41;74.66
6216;BME280;3141;49.234;9.326;2023-05-01T02:24:20;99568.72;;;12.37;75.07
6216;BME280;3141;49.234;9.326;2023-05-01T02:25:07;99565.44;;;12.35;75.20
6216;BME280;3141;49.234;9.326;2023-05-01T02:25:52;99567.06;;;12.36;75.14
6216;BME280;3141;49.234;9.326;2023-05-01T02:26:40;99562.25;;;12.40;74.92
6216;BME280;3141;49.234;9.326;2023-05-01T02:27:29;99570.53;;;12.45;74.52
6216;BME280;3141;49.234;9.326;2023-05-01T02:28:16;99566.06;;;12.37;74.84
6216;BME280;3141;49.234;9.326;2023-05-01T02:29:02;99565.94;;;12.31;74.90
6216;BME280;3141;49.234;9.326;2023-05-01T02:29:46;99560.13;;;12.35;74.78
6216;BME280;3141;49.234;9.326;2023-05-01T02:30:28;99560.94;;;12.36;74.67
6216;BME280;3141;49.234;9.326;2023-05-01T02:31:11;99560.63;;;12.39;74.35
6216;BME280;3141;49.234;9.326;2023-05-01T02:31:54;99563.59;;;12.36;74.67
6216;BME280;3141;49.234;9.326;2023-05-01T02:32:36;99567.25;;;12.35;74.37
6216;BME280;3141;49.234;9.326;2023-05-01T02:33:19;99564.28;;;12.30;74.90
6216;BME280;3141;49.234;9.326;2023-05-01T02:34:01;99565.59;;;12.26;74.68
6216;BME280;3141;49.234;9.326;2023-05-01T02:34:43;99563.75;;;12.34;74.43
6216;BME280;3141;49.234;9.326;2023-05-01T02:35:26;99561.78;;;12.36;74.72
6216;BME280;3141;49.234;9.326;2023-05-01T02:36:09;99556.31;;;12.38;74.56
6216;BME280;3141;49.234;9.326;2023-05-01T02:36:51;99558.47;;;12.34;74.74
6216;BME280;3141;49.234;9.326;2023-05-01T02:37:34;99558.97;;;12.30;75.00
6216;BME280;3141;49.234;9.326;2023-05-01T02:38:16;99559.78;;;12.38;74.73
6216;BME280;3141;49.234;9.326;2023-05-01T02:38:59;99565.25;;;12.37;74.58
6216;BME280;3141;49.234;9.326;2023-05-01T02:39:42;99563.75;;;12.34;74.60
6216;BME280;3141;49.234;9.326;2023-05-01T02:40:25;99559.28;;;12.35;73.93
6216;BME280;3141;49.234;9.326;2023-05-01T02:41:09;99565.44;;;12.35;74.10
6216;BME280;3141;49.234;9.326;2023-05-01T02:41:53;99560.63;;;12.39;73.63
6216;BME280;3141;49.234;9.326;2023-05-01T02:42:37;99554.16;;;12.33;73.93
6216;BME280;3141;49.234;9.326;2023-05-01T02:43:20;99560.28;;;12.34;73.85
6216;BME280;3141;49.234;9.326;2023-05-01T02:44:06;99568.22;;;12.34;73.70
6216;BME280;3141;49.234;9.326;2023-05-01T02:44:54;99558.16;;;12.29;73.95
6216;BME280;3141;49.234;9.326;2023-05-01T02:45:39;99561.63;;;12.30;73.69
6216;BME280;3141;49.234;9.326;2023-05-01T02:46:24;99557.97;;;12.31;73.49
6216;BME280;3141;49.234;9.326;2023-05-01T02:47:09;99559.97;;;12.37;73.52
6216;BME280;3141;49.234;9.326;2023-05-01T02:47:56;99554.84;;;12.35;73.71
6216;BME280;3141;49.234;9.326;2023-05-01T02:48:41;99557.63;;;12.34;73.60
6216;BME280;3141;49.234;9.326;2023-05-01T02:49:24;99549.84;;;12.32;73.38
6216;BME280;3141;49.234;9.326;2023-05-01T02:50:07;99556.69;;;12.27;73.49
6216;BME280;3141;49.234;9.326;2023-05-01T02:50:50;99557.97;;;12.31;73.58
6216;BME280;3141;49.234;9.326;2023-05-01T02:51:35;99545.72;;;12.30;73.43
6216;BME280;3141;49.234;9.326;2023-05-01T02:52:19;99551.38;;;12.27;73.66
6216;BME280;3141;49.234;9.326;2023-05-01T02:53:03;99549.72;;;12.26;73.73
6216;BME280;3141;49.234;9.326;2023-05-01T02:53:46;99550.38;;;12.28;73.24
6216;BME280;3141;49.234;9.326;2023-05-01T02:54:29;99548.69;;;12.35;72.66
6216;BME280;3141;49.234;9.326;2023-05-01T02:55:12;99555.00;;;12.26;72.83
6216;BME280;3141;49.234;9.326;2023-05-01T02:55:55;99550.38;;;12.28;73.24
6216;BME280;3141;49.234;9.326;2023-05-01T02:56:38;99551.38;;;12.27;73.22
6216;BME280;3141;49.234;9.326;2023-05-01T02:57:21;99547.06;;;12.26;74.11
6216;BME280;3141;49.234;9.326;2023-05-01T02:58:03;99547.38;;;12.31;73.76
6216;BME280;3141;49.234;9.326;2023-05-01T02:58:49;99550.03;;;12.31;73.46
6216;BME280;3141;49.234;9.326;2023-05-01T02:59:31;99544.91;;;12.29;73.21
6216;BME280;3141;49.234;9.326;2023-05-01T03:00:14;99546.22;;;12.33;73.56
6216;BME280;3141;49.234;9.326;2023-05-01T03:00:56;99538.44;;;12.32;73.56
6216;BME280;3141;49.234;9.326;2023-05-01T03:01:39;99542.38;;;12.36;73.71
6216;BME280;3141;49.234;9.326;2023-05-01T03:02:21;99538.94;;;12.27;73.59
6216;BME280;3141;49.234;9.326;2023-05-01T03:03:03;99537.94;;;12.28;73.92
6216;BME280;3141;49.234;9.326;2023-05-01T03:03:46;99548.69;;;12.35;73.33
6216;BME280;3141;49.234;9.326;2023-05-01T03:04:29;99542.06;;;12.31;73.54
6216;BME280;3141;49.234;9.326;2023-05-01T03:05:11;99544.72;;;12.31;73.33
6216;BME280;3141;49.234;9.326;2023-05-01T03:05:53;99544.53;;;12.32;73.12
6216;BME280;3141;49.234;9.326;2023-05-01T03:06:36;99532.97;;;12.25;73.14
6216;BME280;3141;49.234;9.326;2023-05-01T03:07:18;99544.91;;;12.29;73.54
6216;BME280;3141;49.234;9.326;2023-05-01T03:08:01;99547.72;;;12.28;73.95
6216;BME280;3141;49.234;9.326;2023-05-01T03:08:43;99544.56;;;12.24;74.15
6216;BME280;3141;49.234;9.326;2023-05-01T03:09:25;99545.72;;;12.30;73.68
6216;BME280;3141;49.234;9.326;2023-05-01T03:10:08;99542.91;;;12.31;73.68
6216;BME280;3141;49.234;9.326;2023-05-01T03:10:50;99547.03;;;12.34;73.41
6216;BME280;3141;49.234;9.326;2023-05-01T03:11:32;99544.22;;;12.35;73.70
6216;BME280;3141;49.234;9.326;2023-05-01T03:12:15;99540.56;;;12.36;74.01
6216;BME280;3141;49.234;9.326;2023-05-01T03:12:58;99545.03;;;12.36;74.01
6216;BME280;3141;49.234;9.326;2023-05-01T03:13:41;99537.75;;;12.38;74.10
6216;BME280;3141;49.234;9.326;2023-05-01T03:14:24;99542.72;;;12.33;73.61
6216;BME280;3141;49.234;9.326;2023-05-01T03:15:09;99539.06;;;12.34;73.44
6216;BME280;3141;49.234;9.326;2023-05-01T03:15:53;99541.91;;;12.32;73.58
6216;BME280;3141;49.234;9.326;2023-05-01T03:16:35;99547.03;;;12.34;73.37
6216;BME280;3141;49.234;9.326;2023-05-01T03:17:18;99543.06;;;12.30;73.89
6216;BME280;3141;49.234;9.326;2023-05-01T03:18:01;99544.22;;;12.27;73.47
6216;BME280;3141;49.234;9.326;2023-05-01T03:18:43;99538.75;;;12.29;73.58
6216;BME280;3141;49.234;9.326;2023-05-01T03:19:26;99542.38;;;12.36;73.49
6216;BME280;3141;49.234;9.326;2023-05-01T03:20:08;99538.09;;;12.35;73.53
6216;BME280;3141;49.234;9.326;2023-05-01T03:20:52;99535.97;;;12.30;73.88
6216;BME280;3141;49.234;9.326;2023-05-01T03:21:35;99539.25;;;12.32;73.87
6216;BME280;3141;49.234;9.326;2023-05-01T03:22:18;99533.63;;;12.35;73.49
6216;BME280;3141;49.234;9.326;2023-05-01T03:23:00;99537.75;;;12.38;73.72
6216;BME280;3141;49.234;9.326;2023-05-01T03:23:43;99534.91;;;12.39;73.44
6216;BME280;3141;49.234;9.326;2023-05-01T03:24:25;99534.75;;;12.41;72.96
6216;BME280;3141;49.234;9.326;2023-05-01T03:25:08;99532.63;;;12.36;73.33
6216;BME280;3141;49.234;9.326;2023-05-01T03:25:50;99538.59;;;12.38;73.39
6216;BME280;3141;49.234;9.326;2023-05-01T03:26:33;99542.88;;;12.39;73.40
6216;BME280;3141;49.234;9.326;2023-05-01T03:27:15;99537.25;;;12.34;73.81
6216;BME280;3141;49.234;9.326;2023-05-01T03:27:58;99537.75;;;12.38;73.65
6216;BME280;3141;49.234;9.326;2023-05-01T03:28:40;99530.97;;;12.35;74.07
6216;BME280;3141;49.234;9.326;2023-05-01T03:29:22;99530.81;;;12.37;74.05
6216;BME280;3141;49.234;9.326;2023-05-01T03:30:05;99539.56;;;12.37;73.71
6216;BME280;3141;49.234;9.326;2023-05-01T03:30:49;99538.44;;;12.32;73.91
6216;BME280;3141;49.234;9.326;2023-05-01T03:31:32;99533.78;;;12.34;73.71
6216;BME280;3141;49.234;9.326;2023-05-01T03:32:15;99535.63;;;12.33;73.58
6216;BME280;3141;49.234;9.326;2023-05-01T03:32:59;99531.78;;;12.36;73.04
6216;BME280;3141;49.234;9.326;2023-05-01T03:33:41;99530.63;;;12.38;73.07
6216;BME280;3141;49.234;9.326;2023-05-01T03:34:23;99528.47;;;12.34;73.31
6216;BME280;3141;49.234;9.326;2023-05-01T03:35:06;99532.47;;;12.30;74.06
6216;BME280;3141;49.234;9.326;2023-05-01T03:35:58;99529.50;;;12.25;74.43
6216;BME280;3141;49.234;9.326;2023-05-01T03:36:41;99526.81;;;12.33;73.89
6216;BME280;3141;49.234;9.326;2023-05-01T03:37:24;99528.81;;;12.39;73.69
6216;BME280;3141;49.234;9.326;2023-05-01T03:38:07;99526.31;;;12.37;73.83
6216;BME280;3141;49.234;9.326;2023-05-01T03:38:50;99530.97;;;12.35;73.59
6216;BME280;3141;49.234;9.326;2023-05-01T03:39:32;99526.16;;;12.31;73.64
6216;BME280;3141;49.234;9.326;2023-05-01T03:40:14;99530.16;;;12.35;73.38
6216;BME280;3141;49.234;9.326;2023-05-01T03:40:57;99524.19;;;12.33;73.59
6216;BME280;3141;49.234;9.326;2023-05-01T03:41:40;99529.31;;;12.34;73.50
6216;BME280;3141;49.234;9.326;2023-05-01T03:42:22;99522.19;;;12.35;73.28
6216;BME280;3141;49.234;9.326;2023-05-01T03:43:05;99529.13;;;12.36;72.97
6216;BME280;3141;49.234;9.326;2023-05-01T03:43:48;99527.31;;;12.36;72.94
6216;BME280;3141;49.234;9.326;2023-05-01T03:44:31;99526.50;;;12.28;74.13
6216;BME280;3141;49.234;9.326;2023-05-01T03:45:14;99527.00;;;12.31;73.79
6216;BME280;3141;49.234;9.326;2023-05-01T03:45:56;99524.84;;;12.35;73.16
6216;BME280;3141;49.234;9.326;2023-05-01T03:46:39;99523.00;;;12.43;72.98
6216;BME280;3141;49.234;9.326;2023-05-01T03:47:22;99523.00;;;12.43;72.81
6216;BME280;3141;49.234;9.326;2023-05-01T03:48:04;99514.56;;;12.40;72.89
6216;BME280;3141;49.234;9.326;2023-05-01T03:48:47;99516.03;;;12.42;72.86
6216;BME280;3141;49.234;9.326;2023-05-01T03:49:29;99522.31;;;12.41;73.20
6216;BME280;3141;49.234;9.326;2023-05-01T03:50:11;99526.78;;;12.41;73.38
6216;BME280;3141;49.234;9.326;2023-05-01T03:50:55;99516.72;;;12.36;73.38
6216;BME280;3141;49.234;9.326;2023-05-01T03:51:39;99523.03;;;12.35;73.58
6216;BME280;3141;49.234;9.326;2023-05-01T03:52:21;99523.03;;;12.35;73.48
6216;BME280;3141;49.234;9.326;2023-05-01T03:53:03;99520.50;;;12.34;73.96
6216;BME280;3141;49.234;9.326;2023-05-01T03:53:46;99516.75;;;12.28;73.54
6216;BME280;3141;49.234;9.326;2023-05-01T03:54:28;99520.50;;;12.34;73.72
6216;BME280;3141;49.234;9.326;2023-05-01T03:55:11;99519.19;;;12.38;73.87
6216;BME280;3141;49.234;9.326;2023-05-01T03:55:53;99517.19;;;12.40;73.71
6216;BME280;3141;49.234;9.326;2023-05-01T03:56:35;99519.63;;;12.49;73.12
6216;BME280;3141;49.234;9.326;2023-05-01T03:57:19;99526.13;;;12.47;72.46
6216;BME280;3141;49.234;9.326;2023-05-01T03:58:02;99517.53;;;12.37;72.73
6216;BME280;3141;49.234;9.326;2023-05-01T03:58:44;99524.63;;;12.44;72.77
6216;BME280;3141;49.234;9.326;2023-05-01T03:59:26;99520.66;;;12.48;72.57
6216;BME280;3141;49.234;9.326;2023-05-01T04:00:09;99523.44;;;12.55;72.33
6216;BME280;3141;49.234;9.326;2023-05-01T04:00:53;99521.13;;;12.52;72.85
6216;BME280;3141;49.234;9.326;2023-05-01T04:01:37;99516.66;;;12.52;72.69
6216;BME280;3141;49.234;9.326;2023-05-01T04:02:20;99510.22;;;12.47;73.26
6216;BME280;3141;49.234;9.326;2023-05-01T04:03:03;99527.75;;;12.48;72.60
6216;BME280;3141;49.234;9.326;2023-05-01T04:03:46;99524.44;;;12.46;73.20
6216;BME280;3141;49.234;9.326;2023-05-01T04:04:29;99514.34;;;12.49;73.29
6216;BME280;3141;49.234;9.326;2023-05-01T04:05:11;99522.28;;;12.49;73.37
6216;BME280;3141;49.234;9.326;2023-05-01T04:05:54;99527.09;;;12.46;73.11
6216;BME280;3141;49.234;9.326;2023-05-01T04:06:36;99519.31;;;12.44;73.27
6216;BME280;3141;49.234;9.326;2023-05-01T04:07:19;99513.72;;;12.39;73.40
6216;BME280;3141;49.234;9.326;2023-05-01T04:08:01;99520.81;;;12.47;73.14
6216;BME280;3141;49.234;9.326;2023-05-01T04:08:45;99519.81;;;12.48;73.03
6216;BME280;3141;49.234;9.326;2023-05-01T04:09:27;99524.13;;;12.49;72.98
6216;BME280;3141;49.234;9.326;2023-05-01T04:10:11;99519.19;;;12.38;74.07
6216;BME280;3141;49.234;9.326;2023-05-01T04:10:53;99517.50;;;12.45;73.71